sensor_id;sensor_type;location;lat;lon;timestamp;P1;durP1;ratioP1;P2;durP2;ratioP2
84958;SDS011;75256;48.062;11.662;2024-02-21T00:01:18;2.83;;;1.30;;
84958;SDS011;75256;48.062;11.662;2024-02-21T00:03:48;3.05;;;1.63;;
84958;SDS011;75256;48.062;11.662;2024-02-21T00:06:14;7.72;;;1.23;;
84958;SDS011;75256;48.062;11.662;2024-02-21T00:08:39;3.65;;;1.20;;
84958;SDS011;75256;48.062;11.662;2024-02-21T00:11:05;2.80;;;1.10;;
84958;SDS011;75256;48.062;11.662;2024-02-21T00:13:32;3.47;;;1.20;;
84958;SDS011;75256;48.062;11.662;2024-02-21T00:16:00;3.08;;;0.93;;
84958;SDS011;75256;48.062;11.662;2024-02-21T00:18:26;3.25;;;1.02;;
84958;SDS011;75256;48.062;11.662;2024-02-21T00:20:51;2.97;;;0.85;;
84958;SDS011;75256;48.062;11.662;2024-02-21T00:23:19;2.60;;;1.00;;
84958;SDS011;75256;48.062;11.662;2024-02-21T00:25:47;3.40;;;1.00;;
84958;SDS011;75256;48.062;11.662;2024-02-21T00:28:14;0.75;;;0.43;;
84958;SDS011;75256;48.062;11.662;2024-02-21T00:30:40;3.17;;;0.82;;
84958;SDS011;75256;48.062;11.662;2024-02-21T00:33:05;2.65;;;0.80;;
84958;SDS011;75256;48.062;11.662;2024-02-21T00:35:33;0.50;;;0.40;;
84958;SDS011;75256;48.062;11.662;2024-02-21T00:38:01;1.60;;;0.68;;
84958;SDS011;75256;48.062;11.662;2024-02-21T00:40:28;2.28;;;0.70;;
84958;SDS011;75256;48.062;11.662;2024-02-21T00:42:53;1.35;;;0.52;;
84958;SDS011;75256;48.062;11.662;2024-02-21T00:45:24;2.35;;;1.42;;
84958;SDS011;75256;48.062;11.662;2024-02-21T00:47:51;0.10;;;0.10;;
84958;SDS011;75256;48.062;11.662;2024-02-21T00:50:19;1.60;;;0.82;;
84958;SDS011;75256;48.062;11.662;2024-02-21T00:52:45;1.35;;;0.45;;
84958;SDS011;75256;48.062;11.662;2024-02-21T00:55:10;1.30;;;0.65;;
84958;SDS011;75256;48.062;11.662;2024-02-21T00:57:36;1.65;;;0.70;;
84958;SDS011;75256;48.062;11.662;2024-02-21T01:00:02;3.30;;;0.77;;
84958;SDS011;75256;48.062;11.662;2024-02-21T01:02:30;0.93;;;0.47;;
84958;SDS011;75256;48.062;11.662;2024-02-21T01:04:59;1.40;;;0.77;;
84958;SDS011;75256;48.062;11.662;2024-02-21T01:07:25;1.95;;;0.98;;
84958;SDS011;75256;48.062;11.662;2024-02-21T01:09:50;3.25;;;0.80;;
84958;SDS011;75256;48.062;11.662;2024-02-21T01:12:21;1.40;;;0.40;;
84958;SDS011;75256;48.062;11.662;2024-02-21T01:14:46;0.80;;;0.38;;
84958;SDS011;75256;48.062;11.662;2024-02-21T01:17:12;0.98;;;0.40;;
84958;SDS011;75256;48.062;11.662;2024-02-21T01:19:37;0.65;;;0.40;;
84958;SDS011;75256;48.062;11.662;2024-02-21T01:22:08;2.30;;;0.80;;
84958;SDS011;75256;48.062;11.662;2024-02-21T01:24:40;0.73;;;0.20;;
84958;SDS011;75256;48.062;11.662;2024-02-21T01:27:08;2.28;;;1.00;;
84958;SDS011;75256;48.062;11.662;2024-02-21T01:29:36;1.70;;;0.68;;
84958;SDS011;75256;48.062;11.662;2024-02-21T01:32:02;2.10;;;0.70;;
84958;SDS011;75256;48.062;11.662;2024-02-21T01:34:30;1.58;;;0.68;;
84958;SDS011;75256;48.062;11.662;2024-02-21T01:36:57;2.50;;;0.82;;
84958;SDS011;75256;48.062;11.662;2024-02-21T01:39:26;2.05;;;0.93;;
84958;SDS011;75256;48.062;11.662;2024-02-21T01:41:54;2.75;;;1.15;;
84958;SDS011;75256;48.062;11.662;2024-02-21T01:44:19;1.50;;;0.68;;
84958;SDS011;75256;48.062;11.662;2024-02-21T01:46:52;2.00;;;1.00;;
84958;SDS011;75256;48.062;11.662;2024-02-21T01:49:18;2.63;;;0.70;;
84958;SDS011;75256;48.062;11.662;2024-02-21T01:51:45;2.35;;;0.90;;
84958;SDS011;75256;48.062;11.662;2024-02-21T01:54:11;2.05;;;0.95;;
84958;SDS011;75256;48.062;11.662;2024-02-21T01:56:39;1.70;;;0.90;;
84958;SDS011;75256;48.062;11.662;2024-02-21T01:59:07;0.85;;;0.40;;
84958;SDS011;75256;48.062;11.662;2024-02-21T02:01:33;1.98;;;1.05;;
84958;SDS011;75256;48.062;11.662;2024-02-21T02:03:59;1.60;;;0.90;;
84958;SDS011;75256;48.062;11.662;2024-02-21T02:06:26;2.33;;;0.93;;
84958;SDS011;75256;48.062;11.662;2024-02-21T02:08:52;1.30;;;0.70;;
84958;SDS011;75256;48.062;11.662;2024-02-21T02:11:19;1.52;;;0.70;;
84958;SDS011;75256;48.062;11.662;2024-02-21T02:13:47;1.73;;;0.80;;
84958;SDS011;75256;48.062;11.662;2024-02-21T02:16:15;1.33;;;0.60;;
84958;SDS011;75256;48.062;11.662;2024-02-21T02:18:40;1.83;;;1.00;;
84958;SDS011;75256;48.062;11.662;2024-02-21T02:21:15;1.00;;;0.52;;
84958;SDS011;75256;48.062;11.662;2024-02-21T02:23:49;0.98;;;0.50;;
84958;SDS011;75256;48.062;11.662;2024-02-21T02:26:16;2.85;;;0.68;;
84958;SDS011;75256;48.062;11.662;2024-02-21T02:28:44;1.73;;;0.40;;
84958;SDS011;75256;48.062;11.662;2024-02-21T02:31:12;0.82;;;0.40;;
84958;SDS011;75256;48.062;11.662;2024-02-21T02:33:42;1.10;;;0.52;;
84958;SDS011;75256;48.062;11.662;2024-02-21T02:36:09;1.48;;;0.52;;
84958;SDS011;75256;48.062;11.662;2024-02-21T02:38:35;1.75;;;0.85;;
84958;SDS011;75256;48.062;11.662;2024-02-21T02:41:03;0.93;;;0.20;;
84958;SDS011;75256;48.062;11.662;2024-02-21T02:43:28;0.63;;;0.40;;
84958;SDS011;75256;48.062;11.662;2024-02-21T02:45:56;1.20;;;0.30;;
84958;SDS011;75256;48.062;11.662;2024-02-21T02:48:22;1.95;;;0.63;;
84958;SDS011;75256;48.062;11.662;2024-02-21T02:50:52;1.27;;;0.50;;
84958;SDS011;75256;48.062;11.662;2024-02-21T02:53:17;1.00;;;0.30;;
84958;SDS011;75256;48.062;11.662;2024-02-21T02:55:43;2.17;;;0.30;;
84958;SDS011;75256;48.062;11.662;2024-02-21T02:58:08;0.95;;;0.47;;
84958;SDS011;75256;48.062;11.662;2024-02-21T03:00:33;1.75;;;0.95;;
84958;SDS011;75256;48.062;11.662;2024-02-21T03:03:01;1.63;;;0.75;;
84958;SDS011;75256;48.062;11.662;2024-02-21T03:05:33;2.13;;;1.15;;
84958;SDS011;75256;48.062;11.662;2024-02-21T03:07:59;0.22;;;0.22;;
84958;SDS011;75256;48.062;11.662;2024-02-21T03:10:24;1.42;;;0.30;;
84958;SDS011;75256;48.062;11.662;2024-02-21T03:12:52;1.52;;;0.30;;
84958;SDS011;75256;48.062;11.662;2024-02-21T03:15:20;1.75;;;0.40;;
84958;SDS011;75256;48.062;11.662;2024-02-21T03:17:47;0.90;;;0.40;;
84958;SDS011;75256;48.062;11.662;2024-02-21T03:20:15;0.60;;;0.30;;
84958;SDS011;75256;48.062;11.662;2024-02-21T03:22:41;0.75;;;0.20;;
84958;SDS011;75256;48.062;11.662;2024-02-21T03:25:09;0.50;;;0.40;;
84958;SDS011;75256;48.062;11.662;2024-02-21T03:27:35;0.20;;;0.10;;
84958;SDS011;75256;48.062;11.662;2024-02-21T03:30:01;1.42;;;0.47;;
84958;SDS011;75256;48.062;11.662;2024-02-21T03:32:26;1.10;;;0.43;;
84958;SDS011;75256;48.062;11.662;2024-02-21T03:34:53;1.00;;;0.40;;
84958;SDS011;75256;48.062;11.662;2024-02-21T03:37:19;0.75;;;0.30;;
84958;SDS011;75256;48.062;11.662;2024-02-21T03:39:47;1.17;;;0.73;;
84958;SDS011;75256;48.062;11.662;2024-02-21T03:42:13;0.93;;;0.30;;
84958;SDS011;75256;48.062;11.662;2024-02-21T03:44:38;0.88;;;0.38;;
84958;SDS011;75256;48.062;11.662;2024-02-21T03:47:06;0.88;;;0.60;;
84958;SDS011;75256;48.062;11.662;2024-02-21T03:49:31;0.65;;;0.20;;
84958;SDS011;75256;48.062;11.662;2024-02-21T03:51:56;0.55;;;0.25;;
84958;SDS011;75256;48.062;11.662;2024-02-21T03:54:22;0.93;;;0.50;;
84958;SDS011;75256;48.062;11.662;2024-02-21T03:56:47;1.25;;;0.52;;
84958;SDS011;75256;48.062;11.662;2024-02-21T03:59:13;0.90;;;0.30;;
84958;SDS011;75256;48.062;11.662;2024-02-21T04:01:39;0.25;;;0.10;;
84958;SDS011;75256;48.062;11.662;2024-02-21T04:04:04;0.40;;;0.20;;
84958;SDS011;75256;48.062;11.662;2024-02-21T04:06:30;0.60;;;0.47;;
84958;SDS011;75256;48.062;11.662;2024-02-21T04:08:56;0.57;;;0.22;;
84958;SDS011;75256;48.062;11.662;2024-02-21T04:11:24;1.02;;;0.30;;
84958;SDS011;75256;48.062;11.662;2024-02-21T04:13:52;1.08;;;0.40;;
84958;SDS011;75256;48.062;11.662;2024-02-21T04:16:17;1.48;;;0.75;;
84958;SDS011;75256;48.062;11.662;2024-02-21T04:18:45;0.80;;;0.30;;
84958;SDS011;75256;48.062;11.662;2024-02-21T04:21:13;0.65;;;0.30;;
84958;SDS011;75256;48.062;11.662;2024-02-21T04:23:39;2.45;;;0.73;;
84958;SDS011;75256;48.062;11.662;2024-02-21T04:26:05;3.50;;;0.65;;
84958;SDS011;75256;48.062;11.662;2024-02-21T04:28:32;2.50;;;0.50;;
84958;SDS011;75256;48.062;11.662;2024-02-21T04:31:01;0.88;;;0.80;;
84958;SDS011;75256;48.062;11.662;2024-02-21T04:33:28;2.35;;;0.60;;
84958;SDS011;75256;48.062;11.662;2024-02-21T04:35:54;0.90;;;0.30;;
84958;SDS011;75256;48.062;11.662;2024-02-21T04:38:20;1.20;;;0.35;;
84958;SDS011;75256;48.062;11.662;2024-02-21T04:40:47;1.40;;;0.43;;
84958;SDS011;75256;48.062;11.662;2024-02-21T04:43:13;0.50;;;0.30;;
84958;SDS011;75256;48.062;11.662;2024-02-21T04:45:41;0.55;;;0.32;;
84958;SDS011;75256;48.062;11.662;2024-02-21T04:48:06;0.65;;;0.30;;
84958;SDS011;75256;48.062;11.662;2024-02-21T04:50:32;1.10;;;0.40;;
84958;SDS011;75256;48.062;11.662;2024-02-21T04:52:57;0.77;;;0.57;;
84958;SDS011;75256;48.062;11.662;2024-02-21T04:55:27;0.98;;;0.43;;
84958;SDS011;75256;48.062;11.662;2024-02-21T04:57:53;1.13;;;0.20;;
84958;SDS011;75256;48.062;11.662;2024-02-21T05:00:23;1.13;;;0.28;;
84958;SDS011;75256;48.062;11.662;2024-02-21T05:02:48;0.50;;;0.32;;
84958;SDS011;75256;48.062;11.662;2024-02-21T05:05:13;0.82;;;0.40;;
84958;SDS011;75256;48.062;11.662;2024-02-21T05:07:41;0.63;;;0.22;;
84958;SDS011;75256;48.062;11.662;2024-02-21T05:10:10;1.45;;;0.30;;
84958;SDS011;75256;48.062;11.662;2024-02-21T05:12:35;0.52;;;0.43;;
84958;SDS011;75256;48.062;11.662;2024-02-21T05:15:01;1.45;;;0.40;;
84958;SDS011;75256;48.062;11.662;2024-02-21T05:17:26;1.80;;;0.40;;
84958;SDS011;75256;48.062;11.662;2024-02-21T05:19:51;1.05;;;0.30;;
84958;SDS011;75256;48.062;11.662;2024-02-21T05:22:17;1.83;;;0.30;;
84958;SDS011;75256;48.062;11.662;2024-02-21T05:24:45;1.27;;;1.02;;
84958;SDS011;75256;48.062;11.662;2024-02-21T05:27:12;1.48;;;0.57;;
84958;SDS011;75256;48.062;11.662;2024-02-21T05:29:39;0.50;;;0.30;;
84958;SDS011;75256;48.062;11.662;2024-02-21T05:32:07;0.90;;;0.32;;
84958;SDS011;75256;48.062;11.662;2024-02-21T05:34:32;0.50;;;0.25;;
84958;SDS011;75256;48.062;11.662;2024-02-21T05:36:57;1.70;;;0.43;;
84958;SDS011;75256;48.062;11.662;2024-02-21T05:39:24;0.85;;;0.30;;
84958;SDS011;75256;48.062;11.662;2024-02-21T05:41:50;2.05;;;0.20;;
84958;SDS011;75256;48.062;11.662;2024-02-21T05:44:16;0.40;;;0.20;;
84958;SDS011;75256;48.062;11.662;2024-02-21T05:46:42;0.32;;;0.30;;
84958;SDS011;75256;48.062;11.662;2024-02-21T05:49:07;1.65;;;0.32;;
84958;SDS011;75256;48.062;11.662;2024-02-21T05:51:33;0.63;;;0.43;;
84958;SDS011;75256;48.062;11.662;2024-02-21T05:54:01;0.98;;;0.30;;
84958;SDS011;75256;48.062;11.662;2024-02-21T05:56:26;0.88;;;0.38;;
84958;SDS011;75256;48.062;11.662;2024-02-21T05:58:52;2.35;;;0.20;;
84958;SDS011;75256;48.062;11.662;2024-02-21T06:01:22;2.33;;;0.40;;
84958;SDS011;75256;48.062;11.662;2024-02-21T06:03:47;1.20;;;0.50;;
84958;SDS011;75256;48.062;11.662;2024-02-21T06:06:14;1.20;;;0.22;;
84958;SDS011;75256;48.062;11.662;2024-02-21T06:08:39;0.25;;;0.22;;
84958;SDS011;75256;48.062;11.662;2024-02-21T06:11:05;0.77;;;0.13;;
84958;SDS011;75256;48.062;11.662;2024-02-21T06:13:37;1.27;;;0.45;;
84958;SDS011;75256;48.062;11.662;2024-02-21T06:16:08;1.58;;;0.30;;
84958;SDS011;75256;48.062;11.662;2024-02-21T06:18:35;0.35;;;0.13;;
84958;SDS011;75256;48.062;11.662;2024-02-21T06:21:00;0.60;;;0.25;;
84958;SDS011;75256;48.062;11.662;2024-02-21T06:23:29;0.20;;;0.10;;
84958;SDS011;75256;48.062;11.662;2024-02-21T06:25:57;1.08;;;0.43;;
84958;SDS011;75256;48.062;11.662;2024-02-21T06:28:22;1.70;;;0.50;;
84958;SDS011;75256;48.062;11.662;2024-02-21T06:30:50;0.43;;;0.30;;
84958;SDS011;75256;48.062;11.662;2024-02-21T06:33:15;0.82;;;0.30;;
84958;SDS011;75256;48.062;11.662;2024-02-21T06:35:41;0.50;;;0.32;;
84958;SDS011;75256;48.062;11.662;2024-02-21T06:38:07;1.02;;;0.20;;
84958;SDS011;75256;48.062;11.662;2024-02-21T06:40:35;0.43;;;0.20;;
84958;SDS011;75256;48.062;11.662;2024-02-21T06:43:04;0.73;;;0.32;;
84958;SDS011;75256;48.062;11.662;2024-02-21T06:45:30;1.10;;;0.40;;
84958;SDS011;75256;48.062;11.662;2024-02-21T06:47:55;0.73;;;0.20;;
84958;SDS011;75256;48.062;11.662;2024-02-21T06:50:23;0.90;;;0.40;;
84958;SDS011;75256;48.062;11.662;2024-02-21T06:52:48;0.47;;;0.40;;
84958;SDS011;75256;48.062;11.662;2024-02-21T06:55:14;0.65;;;0.10;;
84958;SDS011;75256;48.062;11.662;2024-02-21T06:57:39;0.43;;;0.22;;
84958;SDS011;75256;48.062;11.662;2024-02-21T07:00:05;0.45;;;0.40;;
84958;SDS011;75256;48.062;11.662;2024-02-21T07:02:33;0.68;;;0.20;;
84958;SDS011;75256;48.062;11.662;2024-02-21T07:05:01;0.55;;;0.30;;
84958;SDS011;75256;48.062;11.662;2024-02-21T07:07:31;0.60;;;0.20;;
84958;SDS011;75256;48.062;11.662;2024-02-21T07:09:59;7.47;;;1.58;;
84958;SDS011;75256;48.062;11.662;2024-02-21T07:12:26;1.13;;;0.50;;
84958;SDS011;75256;48.062;11.662;2024-02-21T07:14:52;1.20;;;0.40;;
84958;SDS011;75256;48.062;11.662;2024-02-21T07:17:17;1.45;;;0.43;;
84958;SDS011;75256;48.062;11.662;2024-02-21T07:19:42;1.27;;;0.20;;
84958;SDS011;75256;48.062;11.662;2024-02-21T07:22:08;2.53;;;0.47;;
84958;SDS011;75256;48.062;11.662;2024-02-21T07:24:34;2.05;;;0.52;;
84958;SDS011;75256;48.062;11.662;2024-02-21T07:27:02;1.65;;;0.63;;
84958;SDS011;75256;48.062;11.662;2024-02-21T07:29:32;0.65;;;0.40;;
84958;SDS011;75256;48.062;11.662;2024-02-21T07:32:00;0.60;;;0.20;;
84958;SDS011;75256;48.062;11.662;2024-02-21T07:34:26;1.02;;;0.45;;
84958;SDS011;75256;48.062;11.662;2024-02-21T07:36:51;1.27;;;0.30;;
84958;SDS011;75256;48.062;11.662;2024-02-21T07:39:19;1.88;;;0.40;;
84958;SDS011;75256;48.062;11.662;2024-02-21T07:41:44;0.55;;;0.30;;
84958;SDS011;75256;48.062;11.662;2024-02-21T07:44:11;2.22;;;0.50;;
84958;SDS011;75256;48.062;11.662;2024-02-21T07:46:39;2.72;;;0.40;;
84958;SDS011;75256;48.062;11.662;2024-02-21T07:49:06;0.35;;;0.25;;
84958;SDS011;75256;48.062;11.662;2024-02-21T07:51:34;0.73;;;0.30;;
84958;SDS011;75256;48.062;11.662;2024-02-21T07:54:01;1.30;;;0.60;;
84958;SDS011;75256;48.062;11.662;2024-02-21T07:56:27;1.30;;;0.50;;
84958;SDS011;75256;48.062;11.662;2024-02-21T07:58:56;0.52;;;0.13;;
84958;SDS011;75256;48.062;11.662;2024-02-21T08:01:21;1.63;;;0.40;;
84958;SDS011;75256;48.062;11.662;2024-02-21T08:03:49;1.80;;;0.45;;
84958;SDS011;75256;48.062;11.662;2024-02-21T08:06:14;2.67;;;0.30;;
84958;SDS011;75256;48.062;11.662;2024-02-21T08:08:40;1.38;;;0.50;;
84958;SDS011;75256;48.062;11.662;2024-02-21T08:11:05;0.68;;;0.35;;
84958;SDS011;75256;48.062;11.662;2024-02-21T08:13:31;1.65;;;0.57;;
84958;SDS011;75256;48.062;11.662;2024-02-21T08:15:56;1.52;;;0.55;;
84958;SDS011;75256;48.062;11.662;2024-02-21T08:18:26;1.00;;;0.40;;
84958;SDS011;75256;48.062;11.662;2024-02-21T08:20:56;1.45;;;0.68;;
84958;SDS011;75256;48.062;11.662;2024-02-21T08:23:23;0.50;;;0.30;;
84958;SDS011;75256;48.062;11.662;2024-02-21T08:25:53;2.42;;;0.32;;
84958;SDS011;75256;48.062;11.662;2024-02-21T08:28:19;1.23;;;0.32;;
84958;SDS011;75256;48.062;11.662;2024-02-21T08:30:44;0.95;;;0.20;;
84958;SDS011;75256;48.062;11.662;2024-02-21T08:33:13;1.48;;;0.50;;
84958;SDS011;75256;48.062;11.662;2024-02-21T08:35:40;0.80;;;0.43;;
84958;SDS011;75256;48.062;11.662;2024-02-21T08:38:05;0.55;;;0.20;;
84958;SDS011;75256;48.062;11.662;2024-02-21T08:40:35;2.55;;;0.45;;
84958;SDS011;75256;48.062;11.662;2024-02-21T08:43:01;1.38;;;0.40;;
84958;SDS011;75256;48.062;11.662;2024-02-21T08:45:27;0.65;;;0.25;;
84958;SDS011;75256;48.062;11.662;2024-02-21T08:47:52;0.45;;;0.20;;
84958;SDS011;75256;48.062;11.662;2024-02-21T08:50:18;0.88;;;0.20;;
84958;SDS011;75256;48.062;11.662;2024-02-21T08:52:45;0.52;;;0.20;;
84958;SDS011;75256;48.062;11.662;2024-02-21T08:55:16;1.30;;;0.40;;
84958;SDS011;75256;48.062;11.662;2024-02-21T08:57:44;0.90;;;0.13;;
84958;SDS011;75256;48.062;11.662;2024-02-21T09:00:09;1.25;;;0.30;;
84958;SDS011;75256;48.062;11.662;2024-02-21T09:02:40;0.00;;;0.00;;
84958;SDS011;75256;48.062;11.662;2024-02-21T09:05:06;0.90;;;0.38;;
84958;SDS011;75256;48.062;11.662;2024-02-21T09:07:31;1.05;;;0.43;;
84958;SDS011;75256;48.062;11.662;2024-02-21T09:09:59;0.45;;;0.32;;
84958;SDS011;75256;48.062;11.662;2024-02-21T09:12:27;0.63;;;0.28;;
84958;SDS011;75256;48.062;11.662;2024-02-21T09:14:53;0.55;;;0.30;;
84958;SDS011;75256;48.062;11.662;2024-02-21T09:17:21;1.40;;;0.50;;
84958;SDS011;75256;48.062;11.662;2024-02-21T09:19:47;0.32;;;0.22;;
84958;SDS011;75256;48.062;11.662;2024-02-21T09:22:13;0.95;;;0.32;;
84958;SDS011;75256;48.062;11.662;2024-02-21T09:24:38;0.60;;;0.35;;
84958;SDS011;75256;48.062;11.662;2024-02-21T09:27:04;0.00;;;0.00;;
84958;SDS011;75256;48.062;11.662;2024-02-21T09:29:32;0.50;;;0.17;;
84958;SDS011;75256;48.062;11.662;2024-02-21T09:31:58;0.22;;;0.10;;
84958;SDS011;75256;48.062;11.662;2024-02-21T09:34:26;0.30;;;0.20;;
84958;SDS011;75256;48.062;11.662;2024-02-21T09:36:52;0.75;;;0.17;;
84958;SDS011;75256;48.062;11.662;2024-02-21T09:39:18;0.45;;;0.20;;
84958;SDS011;75256;48.062;11.662;2024-02-21T09:41:45;1.15;;;0.20;;
84958;SDS011;75256;48.062;11.662;2024-02-21T09:44:17;0.45;;;0.20;;
84958;SDS011;75256;48.062;11.662;2024-02-21T09:47:03;0.70;;;0.40;;
84958;SDS011;75256;48.062;11.662;2024-02-21T09:49:37;0.13;;;0.13;;
84958;SDS011;75256;48.062;11.662;2024-02-21T09:52:05;0.55;;;0.32;;
84958;SDS011;75256;48.062;11.662;2024-02-21T09:54:37;0.82;;;0.20;;
84958;SDS011;75256;48.062;11.662;2024-02-21T09:57:07;0.93;;;0.30;;
84958;SDS011;75256;48.062;11.662;2024-02-21T09:59:35;0.40;;;0.10;;
84958;SDS011;75256;48.062;11.662;2024-02-21T10:02:02;1.17;;;0.10;;
84958;SDS011;75256;48.062;11.662;2024-02-21T10:04:29;0.63;;;0.32;;
84958;SDS011;75256;48.062;11.662;2024-02-21T10:06:55;0.88;;;0.40;;
84958;SDS011;75256;48.062;11.662;2024-02-21T10:11:55;0.30;;;0.15;;
84958;SDS011;75256;48.062;11.662;2024-02-21T10:14:21;1.35;;;0.20;;
84958;SDS011;75256;48.062;11.662;2024-02-21T10:16:55;0.73;;;0.32;;
84958;SDS011;75256;48.062;11.662;2024-02-21T10:19:24;0.43;;;0.20;;
84958;SDS011;75256;48.062;11.662;2024-02-21T10:22:02;0.73;;;0.30;;
84958;SDS011;75256;48.062;11.662;2024-02-21T10:24:29;1.52;;;0.10;;
84958;SDS011;75256;48.062;11.662;2024-02-21T10:29:30;0.28;;;0.28;;
84958;SDS011;75256;48.062;11.662;2024-02-21T10:32:09;0.10;;;0.00;;
84958;SDS011;75256;48.062;11.662;2024-02-21T10:34:36;0.20;;;0.20;;
84958;SDS011;75256;48.062;11.662;2024-02-21T10:37:02;0.25;;;0.10;;
84958;SDS011;75256;48.062;11.662;2024-02-21T10:39:31;0.70;;;0.00;;
84958;SDS011;75256;48.062;11.662;2024-02-21T10:42:01;0.30;;;0.10;;
84958;SDS011;75256;48.062;11.662;2024-02-21T10:44:31;0.15;;;0.15;;
84958;SDS011;75256;48.062;11.662;2024-02-21T10:46:58;0.10;;;0.03;;
84958;SDS011;75256;48.062;11.662;2024-02-21T10:49:29;0.00;;;0.00;;
84958;SDS011;75256;48.062;11.662;2024-02-21T10:52:06;0.40;;;0.13;;
84958;SDS011;75256;48.062;11.662;2024-02-21T10:57:23;1.90;;;0.10;;
84958;SDS011;75256;48.062;11.662;2024-02-21T10:59:52;0.00;;;0.00;;
84958;SDS011;75256;48.062;11.662;2024-02-21T11:02:19;0.68;;;0.30;;
84958;SDS011;75256;48.062;11.662;2024-02-21T11:04:45;0.60;;;0.10;;
84958;SDS011;75256;48.062;11.662;2024-02-21T11:07:13;0.40;;;0.25;;
84958;SDS011;75256;48.062;11.662;2024-02-21T11:09:39;0.50;;;0.00;;
84958;SDS011;75256;48.062;11.662;2024-02-21T11:12:07;0.30;;;0.10;;
84958;SDS011;75256;48.062;11.662;2024-02-21T11:14:37;0.63;;;0.20;;
84958;SDS011;75256;48.062;11.662;2024-02-21T11:17:22;0.55;;;0.00;;
84958;SDS011;75256;48.062;11.662;2024-02-21T11:19:51;11.77;;;0.63;;
84958;SDS011;75256;48.062;11.662;2024-02-21T11:22:17;2.08;;;0.15;;
84958;SDS011;75256;48.062;11.662;2024-02-21T11:24:47;0.30;;;0.10;;
84958;SDS011;75256;48.062;11.662;2024-02-21T11:27:14;0.50;;;0.20;;
84958;SDS011;75256;48.062;11.662;2024-02-21T11:29:42;0.00;;;0.00;;
84958;SDS011;75256;48.062;11.662;2024-02-21T11:32:19;0.47;;;0.05;;
84958;SDS011;75256;48.062;11.662;2024-02-21T11:35:06;0.50;;;0.20;;
84958;SDS011;75256;48.062;11.662;2024-02-21T11:37:32;0.63;;;0.10;;
84958;SDS011;75256;48.062;11.662;2024-02-21T11:40:03;0.75;;;0.10;;
84958;SDS011;75256;48.062;11.662;2024-02-21T11:42:37;0.30;;;0.10;;
84958;SDS011;75256;48.062;11.662;2024-02-21T11:45:02;0.63;;;0.10;;
84958;SDS011;75256;48.062;11.662;2024-02-21T11:47:28;0.20;;;0.10;;
84958;SDS011;75256;48.062;11.662;2024-02-21T11:49:54;0.00;;;0.00;;
84958;SDS011;75256;48.062;11.662;2024-02-21T11:52:25;0.25;;;0.03;;
84958;SDS011;75256;48.062;11.662;2024-02-21T11:54:51;0.25;;;0.00;;
84958;SDS011;75256;48.062;11.662;2024-02-21T11:57:17;0.15;;;0.05;;
84958;SDS011;75256;48.062;11.662;2024-02-21T11:59:44;0.10;;;0.00;;
84958;SDS011;75256;48.062;11.662;2024-02-21T12:02:13;0.13;;;0.00;;
84958;SDS011;75256;48.062;11.662;2024-02-21T12:04:39;0.22;;;0.00;;
84958;SDS011;75256;48.062;11.662;2024-02-21T12:07:07;0.32;;;0.00;;
84958;SDS011;75256;48.062;11.662;2024-02-21T12:09:33;0.10;;;0.00;;
84958;SDS011;75256;48.062;11.662;2024-02-21T12:12:03;1.92;;;0.13;;
84958;SDS011;75256;48.062;11.662;2024-02-21T12:14:33;1.60;;;0.10;;
84958;SDS011;75256;48.062;11.662;2024-02-21T12:17:03;0.10;;;0.00;;
84958;SDS011;75256;48.062;11.662;2024-02-21T12:19:32;0.10;;;0.00;;
84958;SDS011;75256;48.062;11.662;2024-02-21T12:21:59;0.40;;;0.00;;
84958;SDS011;75256;48.062;11.662;2024-02-21T12:24:25;1.35;;;0.20;;
84958;SDS011;75256;48.062;11.662;2024-02-21T12:26:52;0.00;;;0.00;;
84958;SDS011;75256;48.062;11.662;2024-02-21T12:29:21;0.20;;;0.10;;
84958;SDS011;75256;48.062;11.662;2024-02-21T12:31:51;0.15;;;0.05;;
84958;SDS011;75256;48.062;11.662;2024-02-21T12:34:17;0.40;;;0.00;;
84958;SDS011;75256;48.062;11.662;2024-02-21T12:36:43;0.82;;;0.05;;
84958;SDS011;75256;48.062;11.662;2024-02-21T12:39:12;0.22;;;0.00;;
84958;SDS011;75256;48.062;11.662;2024-02-21T12:41:40;0.45;;;0.10;;
84958;SDS011;75256;48.062;11.662;2024-02-21T12:44:10;1.13;;;0.10;;
84958;SDS011;75256;48.062;11.662;2024-02-21T12:46:36;0.60;;;0.10;;
84958;SDS011;75256;48.062;11.662;2024-02-21T12:49:02;0.40;;;0.08;;
84958;SDS011;75256;48.062;11.662;2024-02-21T12:51:32;1.00;;;0.10;;
84958;SDS011;75256;48.062;11.662;2024-02-21T12:54:01;0.50;;;0.10;;
84958;SDS011;75256;48.062;11.662;2024-02-21T12:56:30;0.77;;;0.10;;
84958;SDS011;75256;48.062;11.662;2024-02-21T12:58:56;0.10;;;0.00;;
84958;SDS011;75256;48.062;11.662;2024-02-21T13:01:22;0.22;;;0.00;;
84958;SDS011;75256;48.062;11.662;2024-02-21T13:03:47;0.13;;;0.10;;
84958;SDS011;75256;48.062;11.662;2024-02-21T13:06:12;0.45;;;0.10;;
84958;SDS011;75256;48.062;11.662;2024-02-21T13:08:38;1.95;;;0.20;;
84958;SDS011;75256;48.062;11.662;2024-02-21T13:11:04;0.77;;;0.10;;
84958;SDS011;75256;48.062;11.662;2024-02-21T13:13:30;0.10;;;0.00;;
84958;SDS011;75256;48.062;11.662;2024-02-21T13:15:59;1.58;;;0.10;;
84958;SDS011;75256;48.062;11.662;2024-02-21T13:18:27;0.10;;;0.00;;
84958;SDS011;75256;48.062;11.662;2024-02-21T13:20:52;0.98;;;0.20;;
84958;SDS011;75256;48.062;11.662;2024-02-21T13:23:17;0.00;;;0.00;;
84958;SDS011;75256;48.062;11.662;2024-02-21T13:25:43;0.65;;;0.10;;
84958;SDS011;75256;48.062;11.662;2024-02-21T13:28:13;0.82;;;0.10;;
84958;SDS011;75256;48.062;11.662;2024-02-21T13:30:41;0.57;;;0.10;;
84958;SDS011;75256;48.062;11.662;2024-02-21T13:33:09;0.73;;;0.10;;
84958;SDS011;75256;48.062;11.662;2024-02-21T13:35:37;0.85;;;0.00;;
84958;SDS011;75256;48.062;11.662;2024-02-21T13:38:03;0.10;;;0.00;;
84958;SDS011;75256;48.062;11.662;2024-02-21T13:40:30;0.17;;;0.00;;
84958;SDS011;75256;48.062;11.662;2024-02-21T13:42:56;0.22;;;0.00;;
84958;SDS011;75256;48.062;11.662;2024-02-21T13:45:23;0.40;;;0.00;;
84958;SDS011;75256;48.062;11.662;2024-02-21T13:47:49;1.08;;;0.10;;
84958;SDS011;75256;48.062;11.662;2024-02-21T13:50:17;0.73;;;0.10;;
84958;SDS011;75256;48.062;11.662;2024-02-21T13:52:43;0.22;;;0.00;;
84958;SDS011;75256;48.062;11.662;2024-02-21T13:55:09;0.35;;;0.10;;
84958;SDS011;75256;48.062;11.662;2024-02-21T13:57:35;1.33;;;0.13;;
84958;SDS011;75256;48.062;11.662;2024-02-21T14:00:06;0.73;;;0.00;;
84958;SDS011;75256;48.062;11.662;2024-02-21T14:02:35;0.38;;;0.10;;
84958;SDS011;75256;48.062;11.662;2024-02-21T14:05:04;0.30;;;0.00;;
84958;SDS011;75256;48.062;11.662;2024-02-21T14:07:31;0.10;;;0.00;;
84958;SDS011;75256;48.062;11.662;2024-02-21T14:09:58;1.52;;;0.15;;
84958;SDS011;75256;48.062;11.662;2024-02-21T14:12:26;1.10;;;0.10;;
84958;SDS011;75256;48.062;11.662;2024-02-21T14:14:54;0.00;;;0.00;;
84958;SDS011;75256;48.062;11.662;2024-02-21T14:17:25;0.65;;;0.20;;
84958;SDS011;75256;48.062;11.662;2024-02-21T14:19:53;0.63;;;0.03;;
84958;SDS011;75256;48.062;11.662;2024-02-21T14:22:18;0.30;;;0.00;;
84958;SDS011;75256;48.062;11.662;2024-02-21T14:24:48;1.35;;;0.00;;
84958;SDS011;75256;48.062;11.662;2024-02-21T14:27:14;0.60;;;0.10;;
84958;SDS011;75256;48.062;11.662;2024-02-21T14:29:39;0.10;;;0.00;;
84958;SDS011;75256;48.062;11.662;2024-02-21T14:32:05;0.75;;;0.10;;
84958;SDS011;75256;48.062;11.662;2024-02-21T14:34:35;0.40;;;0.20;;
84958;SDS011;75256;48.062;11.662;2024-02-21T14:37:00;0.32;;;0.10;;
84958;SDS011;75256;48.062;11.662;2024-02-21T14:39:26;0.30;;;0.00;;
84958;SDS011;75256;48.062;11.662;2024-02-21T14:41:51;0.63;;;0.10;;